PILOTS ONLINE: 489    ATC ONLINE: 75

CBBC - Bella Bella (Campbell Island) Airport

Location

City Bella Bella
Country  Canada
Latitude 52° 11' 6" N
Longitude 128° 9' 25" W
Elevation 141 ft
Type Small Airport

Runways

13/31 3700 ft / 75 ft

Weather

METAR
2014/07/22 13:19
CBBC 221319Z AUTO VRB02KT 9SM -RA OVC038 12/12 A3001 RMK SLP162
TAF
2014/07/22 13:00
TAF CBBC 221238Z 2213/2301 VRB03KT P6SM SCT020 BKN040 
      TEMPO 2213/2222 3SM -SHRA BR SCT008 BKN020 PROB30 2213/2222 2SM -SHRA BR BKN008 
     FM222200 VRB03KT P6SM BKN030 
      TEMPO 2222/2301 5SM -SHRA BR BKN020 
      RMK FCST BASED ON AUTO OBS. NXT FCST BY 221900Z

Outbound flights

Inbound flights